CheckWX is a tool to help pilots better visualize weather data.  It is not intended as a substitute for an official pre-flight weather briefing.

12:59:59 UTC

PAEI TAF
Eielson AFB Airport
Fairbanks, Alaska, USA
TAF PAEI 261400Z 2614/2720 23009KT 9999 SCT030 BKN040 OVC070 620405 QNH2989INS BECMG 2620/2621 26010G15KT 9999 VCSH SCT050 BKN070 610704 QNH2997INS BECMG 2707/2708 VRB06KT 9999 NSW FEW040 SCT060 BKN120 QNH3010INS TX14/2701Z TN07/2616Z

May-26@
14:00 UTC

May-26 @ 14:00 UTC

May-26@
20:00 UTC

May-26 @ 20:00 UTC

TAF PAEI 261400Z 2614/2720 23009KT 9999 SCT030 BKN040 OVC070 620405 QNH2989INS

Expired

Wind
  • 230° at 9 KTS
Cloud Levels
  • Scattered at 3,000' AGL
  • Broken at 4,000' AGL
  • Overcast at 7,000' AGL

May-26@
20:00 UTC

May-26 @ 20:00 UTC

May-27@
07:00 UTC

May-27 @ 07:00 UTC

BECMG 2620/2621 26010G15KT 9999 VCSH SCT050 BKN070 610704 QNH2997INS

Expired

Wind
  • 260° at 10 KTS
  • {Gusting to 15 KTS
Conditions
Area Showers
Cloud Levels
  • Scattered at 5,000' AGL
  • Broken at 7,000' AGL

May-27@
07:00 UTC

May-27 @ 07:00 UTC

May-27@
20:00 UTC

May-27 @ 20:00 UTC

BECMG 2707/2708 VRB06KT 9999 NSW FEW040 SCT060 BKN120 QNH3010INS TX14/2701Z TN07/2616Z

Becoming

Becoming Conditions expected by Wed, May 27, 2020 @ 08:00 UTC

Wind
  • Variable at 6 KTS
Conditions
No significant weather
Cloud Levels
  • Few at 4,000' AGL
  • Scattered at 6,000' AGL
  • Broken at 12,000' AGL